Menu       Home   X °F

Select another period ( hide this area )

Units Period Custom range Directly to
Metric English Both
Daily Weekly Monthly Yearly
use both date-selectors for a custom range
previous Day
With this date
Daily Summary for Tuesday 16 April 2024
Time Temp. ( °F ) Dew pt. ( °F ) Wind ( mph ) From Gust ( mph ) Pressure ( in ) Humid.( % ) Rainrate ( in )
High84.0 59.4 7.0 WSW ( 83/401 ) 9.0 30.08 98 -
Average66.6 54.4 1.7 Calm #112/240 2.3 30.00 71 -
Low53.1 50.5 -   0.0 29.99 34 -
Daily Tabular details for Tuesday 16 April 2024
Time Temp. ( °F ) Dew pt. ( °F ) Wind ( mph ) From Gust ( mph ) Pressure ( in ) Humid.( % ) Rainrate ( in )
00:04 59.4 55.6   Calm   30.02 87 -
00:09 59.2 55.4   Calm   30.02 87 -
00:14 59.0 55.4   Calm   30.03 88 -
00:19 58.8 55.2   Calm   30.03 88 -
00:24 58.8 55.2   Calm   30.03 88 -
00:29 58.5 55.2   Calm   30.02 89 -
00:34 58.5 55.2   Calm   30.02 89 -
00:39 58.3 55.0   Calm   30.02 89 -
00:44 58.3 55.0   Calm   30.02 89 -
00:49 58.6 55.4   Calm   30.02 89 -
00:54 58.5 55.2   Calm   30.02 89 -
00:59 58.1 54.9   Calm   30.02 89 -
01:04 57.9 54.7   Calm   30.02 89 -
01:09 57.7 54.9   Calm   30.02 90 -
01:14 57.7 54.9   Calm   30.02 90 -
01:19 57.9 55.2 1.0 SSE 1.0 30.02 91 -
01:24 57.9 55.0   Calm   30.02 90 -
01:29 57.7 55.2   Calm 1.0 30.02 91 -
01:34 57.7 55.0   Calm 1.0 30.02 91 -
01:39 57.6 55.0   Calm 1.0 30.02 91 -
01:44 57.9 55.4   Calm   30.02 91 -
01:49 57.9 55.0   Calm 1.0 30.02 90 -
01:54 57.7 54.9 1.0 SSE 1.0 30.02 90 -
01:59 57.4 54.7   Calm 1.0 30.02 91 -
02:04 57.0 54.9   Calm   30.01 92 -
02:09 57.0 54.9 1.0 SSE 1.0 30.01 92 -
02:14 57.4 55.2 1.0 SSE 1.0 30.01 92 -
02:19 57.4 54.9   Calm   30.01 91 -
02:24 57.2 54.9   Calm   30.01 92 -
02:29 56.8 54.7   Calm   30.01 92 -
02:34 56.7 54.5   Calm   30.01 92 -
02:39 56.5 54.3   Calm   30.01 93 -
02:44 56.1 54.1   Calm   30.01 93 -
02:49 56.1 54.1   Calm   30.01 93 -
02:54 55.9 54.1   Calm   30.02 94 -
02:59 55.8 54.0   Calm   30.02 94 -
03:04 55.8 54.0   Calm   30.02 94 -
03:09 55.6 53.8 1.0 SSE 1.0 30.02 94 -
03:14 55.4 54.0   Calm 1.0 30.02 95 -
03:19 55.4 54.0   Calm 1.0 30.02 95 -
03:24 55.6 54.1   Calm 1.0 30.02 95 -
03:29 55.6 54.1   Calm 1.0 30.02 95 -
03:34 55.6 54.1 1.0 SSE 1.0 30.02 95 -
03:39 55.8 54.3   Calm 1.0 30.02 95 -
03:44 56.1 54.3 1.0 SSE 1.0 30.02 95 -
03:49 55.9 54.1   Calm   30.02 94 -
03:54 55.8 53.8 1.0 SSE 1.0 30.02 94 -
03:59 55.2 53.6 1.0 SSE 1.0 30.02 95 -
04:04 55.2 53.8 1.0 SSE 2.0 30.02 95 -
04:09 55.9 54.1 2.0 SSE 2.0 30.02 95 -
04:14 55.9 54.1 1.0 SSE 1.0 30.02 94 -
04:19 55.6 53.6   Calm   30.02 94 -
04:24 55.4 53.6   Calm   30.02 94 -
04:29 55.6 53.8   Calm   30.03 94 -
04:34 55.2 53.4   Calm   30.02 94 -
04:39 55.0 53.2   Calm   30.02 94 -
04:44 54.9 53.4   Calm   30.02 95 -
04:49 54.7 53.4   Calm   30.02 96 -
04:54 54.3 53.6   Calm   30.03 97 -
04:59 54.3 53.4   Calm   30.02 97 -
05:04 54.1 53.1   Calm   30.02 96 -
05:09 54.0 53.2 1.0 SSE 1.0 30.03 97 -
05:14 53.8 53.1   Calm   30.02 97 -
05:19 54.3 53.6 1.0 SSE 1.0 30.02 97 -
05:24 54.3 53.6   Calm   30.02 97 -
05:29 54.1 53.4   Calm 1.0 30.02 97 -
05:34 53.8 53.1   Calm 1.0 30.02 97 -
05:39 53.8 53.1   Calm   30.02 97 -
05:44 53.8 53.1   Calm   30.02 97 -
05:49 53.6 52.9   Calm   30.02 97 -
05:54 53.4 52.9   Calm   30.02 98 -
05:59 53.6 53.1   Calm   30.02 98 -
06:04 53.4 52.9   Calm   30.03 98 -
06:09 53.2 52.7   Calm   30.03 98 -
06:14 53.1 52.5   Calm   30.03 98 -
06:19 53.1 52.5   Calm   30.03 98 -
06:24 53.2 52.7   Calm   30.02 98 -
06:29 53.4 52.9 1.0 SSE 1.0 30.03 98 -
06:34 53.8 53.2 1.0 SSE 1.0 30.03 98 -
06:39 53.6 53.1   Calm   30.03 98 -
06:44 53.2 52.7   Calm   30.04 98 -
06:49 53.2 52.7   Calm   30.04 98 -
06:54 53.4 52.9   Calm   30.05 98 -
06:59 53.4 52.9   Calm   30.05 98 -
07:04 53.6 53.1   Calm   30.05 98 -
07:09 53.4 52.9   Calm   30.06 98 -
07:14 53.6 53.1   Calm   30.06 98 -
07:19 53.6 53.1   Calm   30.07 98 -
07:24 53.6 53.1   Calm   30.06 98 -
07:29 53.6 53.1   Calm   30.07 98 -
07:34 53.6 53.1   Calm   30.07 98 -
07:39 53.8 53.2   Calm   30.07 98 -
07:44 54.1 53.6 1.0 SSE 1.0 30.07 98 -
07:49 54.3 53.6 1.0 SSE 1.0 30.07 97 -
07:54 54.9 53.8 1.0 SSE 1.0 30.08 97 -
07:59 55.0 53.8   Calm   30.07 96 -
08:04 55.2 53.8   Calm   30.07 95 -
08:09 55.4 54.0   Calm   30.07 95 -
08:14 55.6 54.1   Calm 1.0 30.07 95 -
08:19 55.6 54.1   Calm   30.07 95 -
08:24 55.6 54.1   Calm   30.07 95 -
08:29 55.9 54.3   Calm   30.08 95 -
08:34 55.9 54.5   Calm   30.08 95 -
08:39 55.9 54.5   Calm   30.07 95 -
08:44 55.8 54.3 1.0 SSE 1.0 30.07 95 -
08:49 56.1 54.1   Calm 1.0 30.07 94 -
08:54 56.7 54.5 1.0 SSE 1.0 30.07 93 -
08:59 57.4 54.9 1.0 SSE 1.0 30.07 92 -
09:04 57.9 55.0 1.0 SSE 1.0 30.07 91 -
09:09 58.3 55.8 1.0 SSE 1.0 30.08 91 -
09:14 58.3 56.1 2.0 SSE 2.0 30.07 92 -
09:19 58.1 55.9 1.0 SSE 2.0 30.07 92 -
09:24 58.6 56.1 1.0 SSE 1.0 30.07 92 -
09:29 59.5 55.6   Calm 1.0 30.08 88 -
09:34 60.1 55.6   Calm   30.08 86 -
09:39 60.4 55.9   Calm   30.08 85 -
09:44 60.4 55.9   Calm   30.08 85 -
09:49 60.6 56.5   Calm   30.08 86 -
09:54 60.8 56.7   Calm   30.08 86 -
09:59 61.2 56.7   Calm   30.07 85 -
10:04 61.5 56.8   Calm 1.0 30.07 85 -
10:09 62.1 57.2 1.0 SSE 2.0 30.07 84 -
10:14 62.6 57.6 1.0 SSE 2.0 30.07 84 -
10:19 63.0 57.4 1.0 SSE 1.0 30.07 83 -
10:24 63.5 57.2   Calm 1.0 30.07 81 -
10:29 64.0 57.2   Calm   30.07 79 -
10:34 64.6 57.6   Calm   30.07 78 -
10:39 64.9 57.9   Calm   30.07 78 -
10:44 65.7 58.6   Calm   30.08 78 -
10:49 66.0 59.2   Calm   30.08 79 -
10:54 66.2 59.2   Calm   30.08 78 -
10:59 66.2 59.2   Calm   30.07 78 -
11:04 66.6 58.5   Calm   30.08 76 -
11:09 67.1 58.6   Calm   30.08 75 -
11:14 67.5 58.3   Calm   30.07 73 -
11:19 68.0 58.5   Calm   30.08 72 -
11:24 68.5 58.1   Calm   30.07 70 -
11:29 68.9 58.3   Calm 1.0 30.08 69 -
11:34 69.6 58.3   Calm   30.08 68 -
11:39 70.3 58.5   Calm 1.0 30.08 67 -
11:44 70.9 58.5   Calm   30.08 65 -
11:49 71.4 58.8   Calm 1.0 30.08 65 -
11:54 72.0 59.4 1.0 SSE 1.0 30.08 65 -
11:59 72.5 58.5 1.0 SSE 1.0 30.08 62 -
12:04 72.9 57.6 2.0 SSE 2.0 30.08 59 -
12:09 73.8 58.8 2.0 SSE 2.0 30.08 60 -
12:14 74.8 57.2 2.0 SSE 2.0 30.07 55 -
12:19 75.9 58.1 2.0 SSE 2.0 30.07 55 -
12:24 76.5 58.3 3.0 SSE 3.0 30.07 54 -
12:29 76.5 57.9 2.0 SSE 3.0 30.07 53 -
12:34 75.9 57.9 2.0 SSE 3.0 30.07 54 -
12:39 76.1 57.7 3.0 SSE 3.0 30.06 53 -
12:44 75.6 56.7 2.0 SSE 2.0 30.05 52 -
12:49 76.1 57.2 2.0 SSE 2.0 30.05 53 -
12:54 76.8 56.8 4.0 SSE 5.0 30.05 51 -
12:59 76.8 54.9 4.0 South 6.0 30.05 47 -
13:04 78.4 55.9 3.0 South 5.0 30.05 47 -
13:09 78.3 55.8 4.0 South 5.0 30.05 46 -
13:14 78.6 54.3 3.0 South 3.0 30.05 43 -
13:19 80.2 54.9 4.0 SSW 6.0 30.05 43 -
13:24 79.7 54.7 3.0 WSW 6.0 30.04 42 -
13:29 79.7 55.8 3.0 SW 3.0 30.04 44 -
13:34 80.1 54.7 2.0 SSE 3.0 30.04 43 -
13:39 80.1 55.0 5.0 SSW 7.0 30.04 42 -
13:44 80.2 55.6 2.0 South 2.0 30.04 44 -
13:49 80.6 55.2 5.0 SSW 6.0 30.04 42 -
13:54 81.1 55.2 4.0 WSW 5.0 30.04 41 -
13:59 81.5 55.6 4.0 WSW 5.0 30.04 41 -
14:04 82.6 55.2 3.0 WSW 3.0 30.03 40 -
14:09 82.6 54.5 4.0 SW 5.0 30.03 38 -
14:14 84.0 55.8 2.0 SSW 3.0 30.03 39 -
14:19 84.0 55.8 4.0 SSW 6.0 30.04 38 -
14:24 82.4 53.4 4.0 SSW 6.0 30.03 37 -
14:29 82.6 53.4 4.0 South 6.0 30.03 37 -
14:34 82.6 52.2 4.0 SSW 6.0 30.02 35 -
14:39 82.6 51.4 4.0 South 5.0 30.02 34 -
14:44 82.8 53.2 4.0 WSW 6.0 30.02 36 -
14:49 83.3 52.9 4.0 SW 6.0 30.02 35 -
14:54 83.1 53.1 6.0 SW 7.0 30.02 36 -
14:59 82.6 54.3 4.0 South 7.0 30.03 38 -
15:04 82.6 54.5 5.0 SSE 5.0 30.03 38 -
15:09 82.6 54.5 4.0 South 6.0 30.02 38 -
15:14 82.2 54.1 3.0 East 6.0 30.02 38 -
15:19 82.8 54.9 5.0 ESE 6.0 30.02 39 -
15:24 82.8 54.0 5.0 SSE 6.0 30.02 37 -
15:29 82.6 53.8 4.0 West 6.0 30.02 37 -
15:34 82.8 54.0 3.0 WSW 3.0 30.02 37 -
15:39 82.8 53.2 5.0 SSW 7.0 30.01 36 -
15:44 82.0 52.5 7.0 SW 8.0 30.01 36 -
15:49 81.7 52.9 5.0 South 7.0 30.01 37 -
15:54 81.5 53.2 6.0 WSW 7.0 30.01 38 -
15:59 81.7 53.4 4.0 SW 6.0 30.01 38 -
16:04 82.4 53.2 7.0 SW 8.0 30.01 37 -
16:09 81.9 53.6 5.0 SW 8.0 30.00 38 -
16:14 81.9 53.6 3.0 SE 5.0 30.00 38 -
16:19 81.9 54.5 5.0 SW 6.0 30.00 39 -
16:24 81.9 53.8 5.0 WSW 6.0 30.00 38 -
16:29 81.7 52.9 4.0 WSW 6.0 30.00 37 -
16:34 81.9 51.6 5.0 WSW 6.0 30.00 35 -
16:39 81.3 51.1 4.0 WSW 5.0 30.00 35 -
16:44 81.5 52.5 3.0 WSW 5.0 29.99 37 -
16:49 81.9 52.3 3.0 WSW 5.0 30.00 36 -
16:54 81.9 53.6 5.0 SW 6.0 30.00 38 -
16:59 81.5 52.7 5.0 SSW 6.0 30.00 37 -
17:04 81.0 52.0 6.0 WSW 6.0 30.00 37 -
17:09 80.8 52.2 6.0 SSW 8.0 30.00 37 -
17:14 80.8 52.2 6.0 WSW 8.0 30.00 37 -
17:19 80.4 52.5 4.0 SSW 6.0 30.00 38 -
17:24 80.6 52.7 3.0 West 3.0 30.00 38 -
17:29 80.6 52.7 6.0 WSW 8.0 30.00 38 -
17:34 80.2 52.7 5.0 SW 8.0 30.00 39 -
17:39 80.2 53.1 4.0 SE 5.0 29.99 39 -
17:44 80.2 53.1 4.0 SSW 7.0 29.99 39 -
17:49 80.2 53.1 4.0 SW 6.0 30.00 39 -
17:54 80.6 54.1 3.0 WSW 3.0 30.00 40 -
17:59 80.6 54.1 3.0 SW 5.0 30.00 40 -
18:04 80.2 53.8 3.0 West 5.0 30.00 40 -
18:09 80.1 53.6 4.0 SE 6.0 29.99 40 -
18:14 79.5 52.5 4.0 SSE 6.0 29.99 39 -
18:19 79.3 52.9 5.0 SW 6.0 30.00 40 -
18:24 79.2 52.0 4.0 WSW 6.0 29.99 39 -
18:29 79.0 52.7 3.0 WSW 5.0 30.00 40 -
18:34 78.4 52.2 3.0 WNW 5.0 30.00 40 -
18:39 78.3 52.0 5.0 SSW 6.0 29.99 40 -
18:44 78.1 52.5 4.0 SE 6.0 29.99 41 -
18:49 78.1 52.5 6.0 ESE 9.0 29.99 41 -
18:54 77.9 52.3 4.0 WSW 9.0 30.00 41 -
18:59 77.7 52.2 6.0 SSW 7.0 30.00 41 -
19:04 77.5 51.4 3.0 SW 6.0 30.00 40 -
19:09 77.4 50.5 3.0 South 3.0 30.00 39 -
19:14 77.4 50.5 3.0 South 5.0 30.00 39 -
19:19 77.2 51.1 3.0 SSW 5.0 30.01 40 -
19:24 77.0 50.9 2.0 SSW 3.0 30.01 40 -
19:29 76.8 50.7 3.0 SSW 3.0 30.01 40 -
19:34 76.6 50.5 3.0 SSW 3.0 30.01 40 -
19:39 76.5 51.1 1.0 SSW 2.0 30.01 41 -
19:44 76.3 51.4 3.0 South 3.0 30.01 42 -
19:49 76.1 51.4 3.0 SSE 3.0 30.01 42 -
19:54 75.9 51.3 3.0 SSE 3.0 30.00 42 -
19:59 75.7 51.1 3.0 South 3.0 30.01 42 -

Download your copy of this data-set  from WeatherUnderground

Our weather-data as stored at Weather Underground

Original Weather Page

My Ham Radio Page